Houlton, ME

14:26 EDT le 30 mai 2015 (GMT -0400)
Houlton International | | Change Station
CLOSE
Current Station
Aéroport
Location: Houlton,
Altitude: 492 ft
Stations météo à proximité

Alt. 492 ft 46.12 °N, 67.79 °W | Updated 33 minutes ago

Partiellement nuageux
Partiellement nuageux
81 ° F
Paraît 82 ° F
N
13
Vent Variable Vent de SSO
Gusts 28 mph

Aujourd'hui
Haut(e) -- | Bas -- ° F
--% Risque de précip.
Hier
Haut(e) -- | Bas -- ° F
Precip. -- pouce
4:44 AM 8:12 PM
Lune gibbeuse croissante, 91% visible
Pression 29.91 pouce
Visibilité 10.0 Miles terrestres
Nuages Ciel dégagé
indice de chaleur 82 ° F
Point de rosée 63 ° F
Humidité 54%
Précipitations 0.00 pouce
Profondeur de la couche neigeuse Non disponible.
UV 10 sur 12
Pollen 9.20 sur 12
Qualité de l'air Non disponible.
Flu Activity Regional
METAR KHUL 301753Z AUTO 21011G24KT 10SM CLR 27/17 A2991

More Conditions Fewer Conditions

Pression 29.91 pouce
Visibilité 10.0 Miles terrestres
Nuages Ciel dégagé
indice de chaleur 82 ° F
Point de rosée 63 ° F
Humidité 54%
Précipitations 0.00 pouce
Profondeur de la couche neigeuse Non disponible.
UV 10 sur 12
Pollen 9.20 sur 12
Qualité de l'air Non disponible.
Flu Activity Regional
METAR KHUL 301753Z AUTO 21011G24KT 10SM CLR 27/17 A2991

More Conditions Fewer Conditions

10-Day Weather Forecast

Almanac

Astronomie

May. 30, 2015 Lever Coucher
Temps réel
Crépuscule civil
Crépuscule nautique
Crépuscule astronomique
Lune
Durée de lumière visible
Longueur du jour
Tomorrow will be .
, % of the Moon is Illuminated

Extrêmes aujourd'hui

State Highs State Lows

Community

WunderPhotos

Upload Photos

1,825,595 Photos téléchargées !

WunderBlogs® & News

Nearby

Qualité de l'air

  Qualité de l'air Indice de la qualité de l'air Polluant
Not available.

Épaisseur de neige

Station Depth Altitude

Activité sismique

Ville Distance Mag. Time & Date
Minimum magnitude displayed is 2.5.

Températures des eaux côtières

Lieu Température

Stations

Stations météo à proximité

Emplacement de la station Température Refroidissement éolien Point de rosée Humidité Vent Precip. Alt. Mise à jour Type